createdAt,value
2017-02-17T00:00:44.578Z,1018.36
2017-02-17T00:01:44.515Z,1018.34
2017-02-17T00:02:44.453Z,1018.33
2017-02-17T00:03:44.390Z,1018.25
2017-02-17T00:04:44.329Z,1018.26
2017-02-17T00:05:44.266Z,1018.29
2017-02-17T00:06:44.205Z,1018.28
2017-02-17T00:07:44.141Z,1018.31
2017-02-17T00:08:44.079Z,1018.35
2017-02-17T00:09:44.018Z,1018.34
2017-02-17T00:10:43.955Z,1018.29
2017-02-17T00:11:43.891Z,1018.27
2017-02-17T00:12:43.829Z,1018.22
2017-02-17T00:13:43.767Z,1018.19
2017-02-17T00:14:43.703Z,1018.15
2017-02-17T00:15:43.642Z,1018.15
2017-02-17T00:16:43.580Z,1018.07
2017-02-17T00:17:43.517Z,1018.09
2017-02-17T00:18:43.454Z,1018.01
2017-02-17T00:19:43.393Z,1017.99
2017-02-17T00:20:43.330Z,1017.95
2017-02-17T00:21:43.268Z,1017.9
2017-02-17T00:22:43.206Z,1017.89
2017-02-17T00:23:43.143Z,1017.88
2017-02-17T00:24:43.084Z,1017.84
2017-02-17T00:25:43.019Z,1017.81
2017-02-17T00:26:42.958Z,1017.82
2017-02-17T00:27:42.893Z,1017.84
2017-02-17T00:28:42.831Z,1017.83
2017-02-17T00:29:42.771Z,1017.83
2017-02-17T00:30:42.705Z,1017.85
2017-02-17T00:31:42.643Z,1017.86
2017-02-17T00:32:42.581Z,1017.84
2017-02-17T00:33:42.518Z,1017.85
2017-02-17T00:34:42.458Z,1017.84
2017-02-17T00:35:42.395Z,1017.85
2017-02-17T00:36:42.330Z,1017.85
2017-02-17T00:37:42.269Z,1017.81
2017-02-17T00:38:42.207Z,1017.82
2017-02-17T00:39:42.144Z,1017.81
2017-02-17T00:40:42.082Z,1017.82
2017-02-17T00:41:42.019Z,1017.83
2017-02-17T00:42:41.956Z,1017.82
2017-02-17T00:43:41.895Z,1017.79
2017-02-17T00:44:41.832Z,1017.77
2017-02-17T00:45:41.771Z,1017.82
2017-02-17T00:46:41.710Z,1017.77
2017-02-17T00:47:41.645Z,1017.8
2017-02-17T00:48:41.584Z,1017.79
2017-02-17T00:49:41.521Z,1017.84
2017-02-17T00:50:41.458Z,1017.85
2017-02-17T00:51:41.396Z,1017.85
2017-02-17T00:52:41.336Z,1017.87
2017-02-17T00:53:41.271Z,1017.82
2017-02-17T00:54:41.208Z,1017.83
2017-02-17T00:55:41.155Z,1017.84
2017-02-17T00:56:41.083Z,1017.83
2017-02-17T00:57:41.023Z,1017.83
2017-02-17T00:58:40.959Z,1017.81
2017-02-17T00:59:40.895Z,1017.79
2017-02-17T01:01:10.940Z,1017.77
2017-02-17T01:02:10.625Z,1017.78
2017-02-17T01:03:10.562Z,1017.73
2017-02-17T01:04:10.498Z,1017.76
2017-02-17T01:05:10.436Z,1017.75
2017-02-17T01:06:10.373Z,1017.74
2017-02-17T01:07:10.310Z,1017.74
2017-02-17T01:08:10.248Z,1017.71
2017-02-17T01:09:10.187Z,1017.67
2017-02-17T01:10:10.128Z,1017.66
2017-02-17T01:11:10.061Z,1017.67
2017-02-17T01:12:09.998Z,1017.63
2017-02-17T01:13:09.936Z,1017.63
2017-02-17T01:14:09.873Z,1017.6
2017-02-17T01:15:09.812Z,1017.62
2017-02-17T01:16:09.749Z,1017.63
2017-02-17T01:17:09.687Z,1017.61
2017-02-17T01:18:09.624Z,1017.57
2017-02-17T01:19:09.562Z,1017.59
2017-02-17T01:20:09.498Z,1017.58
2017-02-17T01:21:09.436Z,1017.54
2017-02-17T01:22:09.374Z,1017.54
2017-02-17T01:23:09.312Z,1017.52
2017-02-17T01:24:09.252Z,1017.53
2017-02-17T01:25:09.189Z,1017.52
2017-02-17T01:26:09.124Z,1017.54
2017-02-17T01:27:09.061Z,1017.55
2017-02-17T01:28:09.000Z,1017.48
2017-02-17T01:29:08.938Z,1017.46
2017-02-17T01:30:08.874Z,1017.49
2017-02-17T01:31:08.812Z,1017.44
2017-02-17T01:32:08.751Z,1017.44
2017-02-17T01:33:08.688Z,1017.42
2017-02-17T01:34:08.623Z,1017.41
2017-02-17T01:35:08.563Z,1017.42
2017-02-17T01:36:08.499Z,1017.42
2017-02-17T01:37:08.436Z,1017.4
2017-02-17T01:38:08.374Z,1017.43
2017-02-17T01:39:08.315Z,1017.41
2017-02-17T01:40:08.252Z,1017.39
2017-02-17T01:41:08.185Z,1017.38
2017-02-17T01:42:08.124Z,1017.39
2017-02-17T01:43:08.063Z,1017.37
2017-02-17T01:44:07.999Z,1017.38
2017-02-17T01:45:07.938Z,1017.41
2017-02-17T01:46:07.876Z,1017.39
2017-02-17T01:47:07.812Z,1017.36
2017-02-17T01:48:07.748Z,1017.35
2017-02-17T01:49:07.687Z,1017.32
2017-02-17T01:50:07.627Z,1017.32
2017-02-17T01:51:07.565Z,1017.29
2017-02-17T01:52:07.499Z,1017.29
2017-02-17T01:53:07.437Z,1017.27
2017-02-17T01:54:07.376Z,1017.28
2017-02-17T01:55:07.311Z,1017.24
2017-02-17T01:56:07.249Z,1017.2
2017-02-17T01:57:07.188Z,1017.27
2017-02-17T01:58:07.125Z,1017.2
2017-02-17T01:59:07.062Z,1017.21
2017-02-17T02:00:07.001Z,1017.26
2017-02-17T02:01:06.939Z,1017.27
2017-02-17T02:02:06.874Z,1017.3
2017-02-17T02:03:06.813Z,1017.27
2017-02-17T02:04:06.751Z,1017.24
2017-02-17T02:05:06.688Z,1017.24
2017-02-17T02:06:06.625Z,1017.24
2017-02-17T02:07:06.562Z,1017.25
2017-02-17T02:08:06.501Z,1017.17
2017-02-17T02:09:06.439Z,1017.18
2017-02-17T02:10:06.374Z,1017.14
2017-02-17T02:11:06.314Z,1017.11
2017-02-17T02:12:06.252Z,1017.11
2017-02-17T02:13:06.188Z,1017.09
2017-02-17T02:14:06.125Z,1017.11
2017-02-17T02:15:06.066Z,1017.12
2017-02-17T02:16:06.001Z,1017.11
2017-02-17T02:17:05.937Z,1017.07
2017-02-17T02:18:05.875Z,1017.09
2017-02-17T02:19:05.813Z,1017.11
2017-02-17T02:20:05.753Z,1017.05
2017-02-17T02:21:05.689Z,1017.04
2017-02-17T02:22:05.626Z,1017.02
2017-02-17T02:23:05.564Z,1017.02
2017-02-17T02:24:05.504Z,1016.97
2017-02-17T02:25:05.441Z,1017.01
2017-02-17T02:26:05.379Z,1017.03
2017-02-17T02:27:05.314Z,1017.06
2017-02-17T02:28:05.251Z,1017
2017-02-17T02:29:05.189Z,1016.98
2017-02-17T02:30:05.125Z,1016.94
2017-02-17T02:31:05.065Z,1016.94
2017-02-17T02:32:05.000Z,1016.96
2017-02-17T02:33:04.940Z,1016.95
2017-02-17T02:34:04.876Z,1016.96
2017-02-17T02:35:04.813Z,1016.96
2017-02-17T02:36:04.752Z,1016.92
2017-02-17T02:37:04.691Z,1016.95
2017-02-17T02:38:04.626Z,1016.91
2017-02-17T02:39:04.563Z,1016.89
2017-02-17T02:40:04.503Z,1016.9
2017-02-17T02:41:04.440Z,1016.91
2017-02-17T02:42:04.377Z,1016.86
2017-02-17T02:43:04.314Z,1016.85
2017-02-17T02:44:04.252Z,1016.82
2017-02-17T02:45:04.191Z,1016.89
2017-02-17T02:46:04.125Z,1016.87
2017-02-17T02:47:04.063Z,1016.89
2017-02-17T02:48:04.003Z,1016.86
2017-02-17T02:49:03.939Z,1016.8
2017-02-17T02:50:03.877Z,1016.79
2017-02-17T02:51:03.813Z,1016.78
2017-02-17T02:52:03.754Z,1016.75
2017-02-17T02:53:03.689Z,1016.73
2017-02-17T02:54:03.627Z,1016.7
2017-02-17T02:55:03.564Z,1016.72
2017-02-17T02:56:03.503Z,1016.68
2017-02-17T02:57:03.439Z,1016.67
2017-02-17T02:58:03.377Z,1016.73
2017-02-17T02:59:03.314Z,1016.71
2017-02-17T03:00:03.255Z,1016.73
2017-02-17T03:01:03.189Z,1016.77
2017-02-17T03:02:03.125Z,1016.69
2017-02-17T03:03:03.065Z,1016.71
2017-02-17T03:04:03.002Z,1016.74
2017-02-17T03:05:02.951Z,1016.72
2017-02-17T03:06:02.878Z,1016.66
2017-02-17T03:07:02.815Z,1016.65
2017-02-17T03:08:02.753Z,1016.67
2017-02-17T03:09:02.690Z,1016.7
2017-02-17T03:10:02.628Z,1016.69
2017-02-17T03:11:02.565Z,1016.72
2017-02-17T03:12:02.503Z,1016.72
2017-02-17T03:13:02.439Z,1016.72
2017-02-17T03:14:02.378Z,1016.69
2017-02-17T03:15:02.317Z,1016.75
2017-02-17T03:16:02.251Z,1016.8
2017-02-17T03:17:02.190Z,1016.76
2017-02-17T03:18:02.128Z,1016.74
2017-02-17T03:19:02.063Z,1016.76
2017-02-17T03:20:02.002Z,1016.72
2017-02-17T03:21:01.940Z,1016.74
2017-02-17T03:22:01.878Z,1016.75
2017-02-17T03:23:01.815Z,1016.67
2017-02-17T03:24:01.755Z,1016.7
2017-02-17T03:25:01.699Z,1016.71
2017-02-17T03:26:01.629Z,1016.72
2017-02-17T03:27:01.607Z,1016.73
2017-02-17T03:28:01.503Z,1016.73
2017-02-17T03:29:01.443Z,1016.75
2017-02-17T03:30:01.377Z,1016.73
2017-02-17T03:31:01.318Z,1016.73
2017-02-17T03:32:01.258Z,1016.73
2017-02-17T03:33:01.189Z,1016.67
2017-02-17T03:34:01.165Z,1016.66
2017-02-17T03:35:01.064Z,1016.68
2017-02-17T03:36:01.004Z,1016.67
2017-02-17T03:37:00.940Z,1016.69
2017-02-17T03:38:00.877Z,1016.7
2017-02-17T03:39:00.814Z,1016.68
2017-02-17T03:40:00.753Z,1016.65
2017-02-17T03:41:00.689Z,1016.64
2017-02-17T03:42:00.625Z,1016.58
2017-02-17T03:43:00.564Z,1016.56
2017-02-17T03:44:00.502Z,1016.55
2017-02-17T03:45:00.440Z,1016.56
2017-02-17T03:46:00.376Z,1016.56
2017-02-17T03:47:00.317Z,1016.5
2017-02-17T03:48:00.252Z,1016.53
2017-02-17T03:49:00.189Z,1016.55
2017-02-17T03:50:00.126Z,1016.54
2017-02-17T03:51:00.066Z,1016.54
2017-02-17T03:52:00.001Z,1016.56
2017-02-17T03:52:59.940Z,1016.6
2017-02-17T03:53:59.876Z,1016.6
2017-02-17T03:54:59.813Z,1016.63
2017-02-17T03:55:59.751Z,1016.6
2017-02-17T03:56:59.688Z,1016.66
2017-02-17T03:57:59.626Z,1016.57
2017-02-17T03:58:59.565Z,1016.58
2017-02-17T03:59:59.501Z,1016.59
2017-02-17T04:00:59.439Z,1016.58
2017-02-17T04:01:59.376Z,1016.59
2017-02-17T04:02:59.314Z,1016.57
2017-02-17T04:03:59.252Z,1016.54
2017-02-17T04:04:59.190Z,1016.5
2017-02-17T04:05:59.126Z,1016.51
2017-02-17T04:06:59.064Z,1016.52
2017-02-17T04:07:59.002Z,1016.56
2017-02-17T04:08:58.940Z,1016.51
2017-02-17T04:09:58.877Z,1016.49
2017-02-17T04:10:58.814Z,1016.49
2017-02-17T04:11:58.753Z,1016.45
2017-02-17T04:12:58.691Z,1016.45
2017-02-17T04:13:58.627Z,1016.43
2017-02-17T04:14:58.564Z,1016.4
2017-02-17T04:15:58.502Z,1016.39
2017-02-17T04:16:58.441Z,1016.43
2017-02-17T04:17:58.378Z,1016.4
2017-02-17T04:18:58.322Z,1016.36
2017-02-17T04:19:58.254Z,1016.43
2017-02-17T04:20:58.190Z,1016.37
2017-02-17T04:21:58.128Z,1016.38
2017-02-17T04:22:58.066Z,1016.36
2017-02-17T04:23:58.003Z,1016.34
2017-02-17T04:24:57.938Z,1016.28
2017-02-17T04:25:57.878Z,1016.3
2017-02-17T04:26:57.815Z,1016.28
2017-02-17T04:27:57.752Z,1016.27
2017-02-17T04:28:57.690Z,1016.27
2017-02-17T04:29:57.633Z,1016.24
2017-02-17T04:30:57.565Z,1016.26
2017-02-17T04:31:57.502Z,1016.26
2017-02-17T04:32:57.442Z,1016.27
2017-02-17T04:33:57.377Z,1016.25
2017-02-17T04:34:57.315Z,1016.23
2017-02-17T04:35:57.251Z,1016.22
2017-02-17T04:36:57.190Z,1016.23
2017-02-17T04:37:57.128Z,1016.22
2017-02-17T04:38:57.065Z,1016.19
2017-02-17T04:39:57.015Z,1016.17
2017-02-17T04:40:56.940Z,1016.2
2017-02-17T04:41:56.880Z,1016.17
2017-02-17T04:42:56.814Z,1016.16
2017-02-17T04:43:56.753Z,1016.17
2017-02-17T04:44:56.690Z,1016.16
2017-02-17T04:45:56.628Z,1016.14
2017-02-17T04:46:56.564Z,1016.08
2017-02-17T04:47:56.503Z,1016.08
2017-02-17T04:48:56.442Z,1016.13
2017-02-17T04:49:56.377Z,1016.1
2017-02-17T04:50:56.314Z,1016.09
2017-02-17T04:51:56.253Z,1016.12
2017-02-17T04:52:56.224Z,1016.13
2017-02-17T04:53:56.127Z,1016.07
2017-02-17T04:54:56.065Z,1016.12
2017-02-17T04:55:56.002Z,1016.11
2017-02-17T04:56:55.940Z,1016.09
2017-02-17T04:57:55.877Z,1016.03
2017-02-17T04:58:55.815Z,1016.03
2017-02-17T04:59:55.751Z,1016.05
2017-02-17T05:00:55.690Z,1016.45
2017-02-17T05:01:55.627Z,1016.58
2017-02-17T05:02:55.565Z,1016.48
2017-02-17T05:03:55.503Z,1016.21
2017-02-17T05:04:55.438Z,1016.18
2017-02-17T05:05:55.377Z,1016.16
2017-02-17T05:06:55.323Z,1016.16
2017-02-17T05:07:55.262Z,1016.11
2017-02-17T05:08:55.189Z,1016.13
2017-02-17T05:09:55.161Z,1016.11
2017-02-17T05:10:55.066Z,1016.04
2017-02-17T05:11:55.002Z,1016.04
2017-02-17T05:12:54.938Z,1016.05
2017-02-17T05:13:54.880Z,1016.03
2017-02-17T05:14:54.815Z,1016.03
2017-02-17T05:15:54.752Z,1015.99
2017-02-17T05:16:54.689Z,1015.97
2017-02-17T05:17:54.627Z,1015.99
2017-02-17T05:18:54.566Z,1015.97
2017-02-17T05:19:54.501Z,1015.9
2017-02-17T05:20:54.439Z,1015.9
2017-02-17T05:21:54.377Z,1015.88
2017-02-17T05:22:54.314Z,1015.89
2017-02-17T05:23:54.252Z,1015.95
2017-02-17T05:24:54.190Z,1015.89
2017-02-17T05:25:54.127Z,1015.91
2017-02-17T05:26:54.064Z,1015.85
2017-02-17T05:27:54.002Z,1015.85
2017-02-17T05:28:53.939Z,1015.77
2017-02-17T05:29:53.877Z,1015.77
2017-02-17T05:30:53.814Z,1015.8
2017-02-17T05:31:53.751Z,1015.8
2017-02-17T05:32:53.689Z,1015.78
2017-02-17T05:33:53.636Z,1015.78
2017-02-17T05:34:53.564Z,1015.75
2017-02-17T05:35:53.502Z,1015.76
2017-02-17T05:36:53.439Z,1015.72
2017-02-17T05:37:53.376Z,1015.72
2017-02-17T05:38:53.313Z,1015.69
2017-02-17T05:39:53.253Z,1015.68
2017-02-17T05:40:53.189Z,1015.69
2017-02-17T05:41:53.126Z,1015.84
2017-02-17T05:42:53.064Z,1015.86
2017-02-17T05:43:53.002Z,1015.8
2017-02-17T05:44:52.940Z,1015.78
2017-02-17T05:45:52.877Z,1015.75
2017-02-17T05:46:52.817Z,1015.77
2017-02-17T05:47:52.754Z,1015.78
2017-02-17T05:48:52.691Z,1015.85
2017-02-17T05:49:52.627Z,1015.84
2017-02-17T05:50:52.565Z,1015.82
2017-02-17T05:51:52.503Z,1015.81
2017-02-17T05:52:52.439Z,1015.77
2017-02-17T05:53:52.375Z,1015.79
2017-02-17T05:54:52.315Z,1015.81
2017-02-17T05:55:52.251Z,1015.77
2017-02-17T05:56:52.190Z,1015.61
2017-02-17T05:57:52.128Z,1015.6
2017-02-17T05:58:52.071Z,1015.61
2017-02-17T05:59:52.002Z,1015.62
2017-02-17T06:00:51.940Z,1015.62
2017-02-17T06:01:51.877Z,1015.61
2017-02-17T06:02:51.814Z,1015.62
2017-02-17T06:03:51.755Z,1015.65
2017-02-17T06:04:51.689Z,1015.63
2017-02-17T06:05:51.627Z,1015.61
2017-02-17T06:06:51.564Z,1015.6
2017-02-17T06:07:51.500Z,1015.62
2017-02-17T06:08:51.439Z,1015.57
2017-02-17T06:09:51.377Z,1015.61
2017-02-17T06:10:51.314Z,1015.59
2017-02-17T06:11:51.252Z,1015.59
2017-02-17T06:12:51.189Z,1015.6
2017-02-17T06:13:51.126Z,1015.59
2017-02-17T06:14:51.064Z,1015.63
2017-02-17T06:15:51.005Z,1015.63
2017-02-17T06:16:50.939Z,1015.61
2017-02-17T06:17:50.876Z,1015.62
2017-02-17T06:18:50.813Z,1015.63
2017-02-17T06:19:50.752Z,1015.65
2017-02-17T06:20:50.688Z,1015.62
2017-02-17T06:21:50.625Z,1015.66
2017-02-17T06:22:50.563Z,1015.66
2017-02-17T06:23:50.501Z,1015.65
2017-02-17T06:24:50.437Z,1015.7
2017-02-17T06:25:50.374Z,1015.67
2017-02-17T06:26:50.311Z,1015.66
2017-02-17T06:27:50.250Z,1015.66
2017-02-17T06:28:50.188Z,1015.63
2017-02-17T06:29:50.125Z,1015.67
2017-02-17T06:30:50.062Z,1015.65
2017-02-17T06:31:50.001Z,1015.64
2017-02-17T06:32:49.937Z,1015.65
2017-02-17T06:33:49.874Z,1015.67
2017-02-17T06:34:49.812Z,1015.68
2017-02-17T06:35:49.750Z,1015.66
2017-02-17T06:36:49.686Z,1015.69
2017-02-17T06:37:49.624Z,1015.69
2017-02-17T06:38:49.562Z,1015.68
2017-02-17T06:39:49.499Z,1015.71
2017-02-17T06:40:49.438Z,1015.68
2017-02-17T06:41:49.374Z,1015.65
2017-02-17T06:42:49.311Z,1015.68
2017-02-17T06:43:49.249Z,1015.63
2017-02-17T06:44:49.186Z,1015.6
2017-02-17T06:45:49.125Z,1015.65
2017-02-17T06:46:49.061Z,1015.65
2017-02-17T06:47:48.998Z,1015.66
2017-02-17T06:48:48.936Z,1015.59
2017-02-17T06:49:48.874Z,1015.61
2017-02-17T06:50:48.811Z,1015.61
2017-02-17T06:51:48.748Z,1015.56
2017-02-17T06:52:48.686Z,1015.59
2017-02-17T06:53:48.625Z,1015.61
2017-02-17T06:54:48.561Z,1015.52
2017-02-17T06:55:48.499Z,1015.57
2017-02-17T06:56:48.436Z,1015.55
2017-02-17T06:57:48.375Z,1015.55
2017-02-17T06:58:48.310Z,1015.53
2017-02-17T06:59:48.248Z,1015.54
2017-02-17T07:00:48.191Z,1015.57
2017-02-17T07:01:48.123Z,1015.58
2017-02-17T07:02:48.061Z,1015.6
2017-02-17T07:03:47.997Z,1015.59
2017-02-17T07:04:47.936Z,1015.58
2017-02-17T07:05:47.872Z,1015.59
2017-02-17T07:06:47.812Z,1015.57
2017-02-17T07:07:47.748Z,1015.52
2017-02-17T07:08:47.685Z,1015.54
2017-02-17T07:09:47.622Z,1015.55
2017-02-17T07:10:47.561Z,1015.54
2017-02-17T07:11:47.498Z,1015.54
2017-02-17T07:12:47.437Z,1015.54
2017-02-17T07:13:47.374Z,1015.54
2017-02-17T07:14:47.310Z,1015.53
2017-02-17T07:15:47.246Z,1015.53
2017-02-17T07:16:47.184Z,1015.56
2017-02-17T07:17:47.120Z,1015.55
2017-02-17T07:18:47.059Z,1015.6
2017-02-17T07:19:46.996Z,1015.53
2017-02-17T07:20:46.933Z,1015.52
2017-02-17T07:21:46.873Z,1015.52
2017-02-17T07:22:46.812Z,1015.5
2017-02-17T07:23:46.746Z,1015.51
2017-02-17T07:24:46.690Z,1015.48
2017-02-17T07:25:46.622Z,1015.49
2017-02-17T07:26:46.560Z,1015.46
2017-02-17T07:27:46.495Z,1015.47
2017-02-17T07:28:46.433Z,1015.49
2017-02-17T07:29:46.377Z,1015.49
2017-02-17T07:30:46.308Z,1015.43
2017-02-17T07:31:46.245Z,1015.45
2017-02-17T07:32:46.184Z,1015.4
2017-02-17T07:33:46.121Z,1015.43
2017-02-17T07:34:46.061Z,1015.44
2017-02-17T07:35:45.996Z,1015.43
2017-02-17T07:36:45.933Z,1015.43
2017-02-17T07:37:45.870Z,1015.4
2017-02-17T07:38:45.808Z,1015.47
2017-02-17T07:39:45.745Z,1015.4
2017-02-17T07:40:45.683Z,1015.44
2017-02-17T07:41:45.619Z,1015.42
2017-02-17T07:42:45.558Z,1015.41
2017-02-17T07:43:45.495Z,1015.4
2017-02-17T07:44:45.433Z,1015.38
2017-02-17T07:45:45.369Z,1015.43
2017-02-17T07:46:45.307Z,1015.41
2017-02-17T07:47:45.248Z,1015.42
2017-02-17T07:48:45.183Z,1015.39
2017-02-17T07:49:45.121Z,1015.38
2017-02-17T07:50:45.058Z,1015.4
2017-02-17T07:51:44.996Z,1015.39
2017-02-17T07:52:44.932Z,1015.37
2017-02-17T07:53:44.871Z,1015.36
2017-02-17T07:54:44.807Z,1015.34
2017-02-17T07:55:44.745Z,1015.35
2017-02-17T07:56:44.685Z,1015.3
2017-02-17T07:57:44.622Z,1015.35
2017-02-17T07:58:44.559Z,1015.32
2017-02-17T07:59:44.497Z,1015.31
2017-02-17T08:00:44.433Z,1015.34
2017-02-17T08:01:44.370Z,1015.33
2017-02-17T08:02:44.308Z,1015.37
2017-02-17T08:03:44.245Z,1015.35
2017-02-17T08:04:44.182Z,1015.39
2017-02-17T08:05:44.121Z,1015.34
2017-02-17T08:06:44.058Z,1015.36
2017-02-17T08:07:43.993Z,1015.32
2017-02-17T08:08:43.932Z,1015.35
2017-02-17T08:09:43.872Z,1015.34
2017-02-17T08:10:43.810Z,1015.35
2017-02-17T08:11:43.747Z,1015.4
2017-02-17T08:12:43.682Z,1015.39
2017-02-17T08:13:43.620Z,1015.36
2017-02-17T08:14:43.556Z,1015.4
2017-02-17T08:15:43.496Z,1015.32
2017-02-17T08:16:43.433Z,1015.34
2017-02-17T08:17:43.370Z,1015.34
2017-02-17T08:18:43.308Z,1015.33
2017-02-17T08:19:43.245Z,1015.33
2017-02-17T08:20:43.183Z,1015.36
2017-02-17T08:21:43.120Z,1015.35
2017-02-17T08:22:43.065Z,1015.33
2017-02-17T08:23:42.998Z,1015.35
2017-02-17T08:24:42.935Z,1015.31
2017-02-17T08:25:42.887Z,1015.29
2017-02-17T08:26:42.833Z,1015.28
2017-02-17T08:27:42.744Z,1015.3
2017-02-17T08:28:42.683Z,1015.33
2017-02-17T08:29:42.619Z,1015.24
2017-02-17T08:30:42.907Z,1015.28
2017-02-17T08:31:42.496Z,1015.28
2017-02-17T08:32:42.432Z,1015.24
2017-02-17T08:33:42.372Z,1015.24
2017-02-17T08:34:42.323Z,1015.23
2017-02-17T08:35:42.245Z,1015.27
2017-02-17T08:36:42.183Z,1015.22
2017-02-17T08:37:42.120Z,1015.23
2017-02-17T08:38:42.057Z,1015.27
2017-02-17T08:39:41.996Z,1015.29
2017-02-17T08:40:41.934Z,1015.21
2017-02-17T08:41:41.869Z,1015.24
2017-02-17T08:42:41.808Z,1015.23
2017-02-17T08:43:41.746Z,1015.22
2017-02-17T08:44:41.682Z,1015.2
2017-02-17T08:45:41.623Z,1015.3
2017-02-17T08:46:41.558Z,1015.26
2017-02-17T08:47:41.496Z,1015.24
2017-02-17T08:48:41.433Z,1015.16
2017-02-17T08:49:41.370Z,1015.17
2017-02-17T08:50:41.308Z,1015.21
2017-02-17T08:51:41.274Z,1015.19
2017-02-17T08:52:41.183Z,1015.2
2017-02-17T08:53:41.127Z,1015.15
2017-02-17T08:54:41.079Z,1015.15
2017-02-17T08:55:41.002Z,1015.19
2017-02-17T08:56:40.935Z,1015.16
2017-02-17T08:57:40.872Z,1015.14
2017-02-17T08:58:40.810Z,1015.19
2017-02-17T08:59:40.752Z,1015.17
2017-02-17T09:00:40.688Z,1015.23
2017-02-17T09:01:40.621Z,1015.21
2017-02-17T09:02:40.557Z,1015.21
2017-02-17T09:03:40.498Z,1015.22
2017-02-17T09:04:40.453Z,1015.23
2017-02-17T09:05:40.370Z,1015.23
2017-02-17T09:06:40.309Z,1015.3
2017-02-17T09:07:40.246Z,1015.28
2017-02-17T09:08:40.185Z,1015.25
2017-02-17T09:09:40.123Z,1015.22
2017-02-17T09:10:40.063Z,1015.23
2017-02-17T09:11:40.013Z,1015.19
2017-02-17T09:12:39.935Z,1015.16
2017-02-17T09:13:39.873Z,1015.16
2017-02-17T09:14:39.811Z,1015.17
2017-02-17T09:15:39.998Z,1015.16
2017-02-17T09:16:39.684Z,1015.15
2017-02-17T09:17:39.623Z,1015.11
2017-02-17T09:18:39.561Z,1015.14
2017-02-17T09:19:39.499Z,1015.1
2017-02-17T09:20:39.441Z,1015.06
2017-02-17T09:21:39.375Z,1015.05
2017-02-17T09:22:39.312Z,1015.06
2017-02-17T09:23:39.250Z,1015.05
2017-02-17T09:24:39.187Z,1015.03
2017-02-17T09:25:39.125Z,1015.04
2017-02-17T09:26:39.064Z,1015.06
2017-02-17T09:27:38.999Z,1015.07
2017-02-17T09:28:38.938Z,1015.12
2017-02-17T09:29:38.921Z,1015.07
2017-02-17T09:30:38.814Z,1015.11
2017-02-17T09:31:38.752Z,1015.1
2017-02-17T09:32:38.690Z,1015.06
2017-02-17T09:33:38.978Z,1015.08
2017-02-17T09:34:38.565Z,1015.09
2017-02-17T09:35:38.503Z,1015.04
2017-02-17T09:36:38.441Z,1015.08
2017-02-17T09:37:38.379Z,1015.09
2017-02-17T09:38:38.327Z,1015.11
2017-02-17T09:39:38.254Z,1015.07
2017-02-17T09:40:38.253Z,1015.05
2017-02-17T09:41:38.195Z,1015.07
2017-02-17T09:42:38.078Z,1015.04
2017-02-17T09:43:38.007Z,1015.06
2017-02-17T09:44:37.945Z,1015.05
2017-02-17T09:45:37.883Z,1015.04
2017-02-17T09:46:37.820Z,1015.03
2017-02-17T09:47:37.757Z,1014.99
2017-02-17T09:48:37.696Z,1015
2017-02-17T09:49:37.637Z,1015.01
2017-02-17T09:50:37.573Z,1014.99
2017-02-17T09:51:37.510Z,1014.98
2017-02-17T09:52:37.452Z,1015.04
2017-02-17T09:53:37.385Z,1015
2017-02-17T09:54:37.324Z,1015.01
2017-02-17T09:55:37.263Z,1015.03
2017-02-17T09:56:37.203Z,1014.97
2017-02-17T09:57:37.413Z,1014.97
2017-02-17T09:58:37.074Z,1015
2017-02-17T09:59:37.012Z,1014.98
2017-02-17T10:00:37.199Z,1015
2017-02-17T10:01:36.888Z,1015.04
2017-02-17T10:02:36.825Z,1015.02
2017-02-17T10:03:36.766Z,1015.02
2017-02-17T10:04:36.703Z,1014.98
2017-02-17T10:05:36.646Z,1014.98
2017-02-17T10:06:36.578Z,1014.98
2017-02-17T10:07:36.515Z,1015.04
2017-02-17T10:08:36.453Z,1014.98
2017-02-17T10:09:36.391Z,1014.99
2017-02-17T10:10:36.579Z,1014.99
2017-02-17T10:11:36.266Z,1014.96
2017-02-17T10:12:36.203Z,1015.05
2017-02-17T10:13:36.142Z,1015
2017-02-17T10:14:36.079Z,1015
2017-02-17T10:15:36.016Z,1015
2017-02-17T10:16:35.955Z,1014.99
2017-02-17T10:17:35.894Z,1015.03
2017-02-17T10:18:35.832Z,1015.08
2017-02-17T10:19:35.768Z,1015.03
2017-02-17T10:20:35.707Z,1015.04
2017-02-17T10:21:35.644Z,1015.07
2017-02-17T10:22:35.582Z,1015.03
2017-02-17T10:23:35.525Z,1015.06
2017-02-17T10:24:35.457Z,1015.08
2017-02-17T10:25:35.394Z,1015.07
2017-02-17T10:26:35.331Z,1015.07
2017-02-17T10:27:35.271Z,1015.06
2017-02-17T10:28:35.243Z,1015.1
2017-02-17T10:29:35.146Z,1015.1
2017-02-17T10:30:35.087Z,1015.06
2017-02-17T10:31:35.024Z,1015.07
2017-02-17T10:32:34.959Z,1015.04
2017-02-17T10:33:34.897Z,1015.06
2017-02-17T10:34:34.839Z,1015.02
2017-02-17T10:35:34.772Z,1015.01
2017-02-17T10:36:34.712Z,1015.01
2017-02-17T10:37:34.674Z,1015.01
2017-02-17T10:38:34.623Z,1015.01
2017-02-17T10:39:34.529Z,1015.01
2017-02-17T10:40:34.811Z,1015.05
2017-02-17T10:41:34.398Z,1015.07
2017-02-17T10:42:34.337Z,1015.02
2017-02-17T10:43:34.276Z,1015.02
2017-02-17T10:44:34.213Z,1015.02
2017-02-17T10:45:34.501Z,1015.01
2017-02-17T10:46:34.088Z,1014.99
2017-02-17T10:47:34.026Z,1014.99
2017-02-17T10:48:33.963Z,1015.01
2017-02-17T10:49:33.900Z,1015.01
2017-02-17T10:50:33.839Z,1015.06
2017-02-17T10:51:33.785Z,1015.02
2017-02-17T10:52:33.713Z,1014.99
2017-02-17T10:53:33.651Z,1014.99
2017-02-17T10:54:33.588Z,1014.97
2017-02-17T10:55:33.524Z,1015
2017-02-17T10:56:33.465Z,1014.96
2017-02-17T10:57:33.404Z,1014.95
2017-02-17T10:58:33.343Z,1014.94
2017-02-17T10:59:33.277Z,1014.93
2017-02-17T11:00:33.215Z,1014.95
2017-02-17T11:01:33.159Z,1014.97
2017-02-17T11:02:33.089Z,1014.91
2017-02-17T11:03:33.028Z,1014.88
2017-02-17T11:04:32.965Z,1014.89
2017-02-17T11:05:32.903Z,1014.93
2017-02-17T11:06:32.844Z,1014.9
2017-02-17T11:07:32.778Z,1014.91
2017-02-17T11:08:32.719Z,1014.88
2017-02-17T11:09:32.685Z,1014.88
2017-02-17T11:10:32.591Z,1014.91
2017-02-17T11:11:32.529Z,1014.9
2017-02-17T11:12:32.467Z,1014.87
2017-02-17T11:13:32.405Z,1014.87
2017-02-17T11:14:32.341Z,1014.89
2017-02-17T11:15:32.278Z,1014.86
2017-02-17T11:16:32.218Z,1014.84
2017-02-17T11:17:32.155Z,1014.84
2017-02-17T11:18:32.093Z,1014.84
2017-02-17T11:19:32.330Z,1014.85
2017-02-17T11:20:32.219Z,1014.84
2017-02-17T11:21:31.905Z,1014.81
2017-02-17T11:22:31.844Z,1014.81
2017-02-17T11:23:31.783Z,1014.78
2017-02-17T11:24:31.721Z,1014.75
2017-02-17T11:25:31.658Z,1014.75
2017-02-17T11:26:31.596Z,1014.79
2017-02-17T11:27:31.534Z,1014.73
2017-02-17T11:28:31.476Z,1014.77
2017-02-17T11:29:31.409Z,1014.73
2017-02-17T11:30:31.347Z,1014.74
2017-02-17T11:31:31.285Z,1014.76
2017-02-17T11:32:31.226Z,1014.74
2017-02-17T11:33:31.161Z,1014.74
2017-02-17T11:34:31.100Z,1014.75
2017-02-17T11:35:31.037Z,1014.72
2017-02-17T11:36:30.974Z,1014.7
2017-02-17T11:37:30.913Z,1014.71
2017-02-17T11:38:30.855Z,1014.67
2017-02-17T11:39:30.788Z,1014.64
2017-02-17T11:40:30.729Z,1014.64
2017-02-17T11:41:30.667Z,1014.67
2017-02-17T11:42:30.604Z,1014.66
2017-02-17T11:43:30.541Z,1014.68
2017-02-17T11:44:30.485Z,1014.67
2017-02-17T11:45:30.418Z,1014.68
2017-02-17T11:46:30.356Z,1014.65
2017-02-17T11:47:30.294Z,1014.66
2017-02-17T11:48:30.232Z,1014.65
2017-02-17T11:49:30.169Z,1014.64
2017-02-17T11:50:30.107Z,1014.63
2017-02-17T11:51:30.047Z,1014.61
2017-02-17T11:52:29.984Z,1014.62
2017-02-17T11:53:29.923Z,1014.65
2017-02-17T11:54:29.861Z,1014.62
2017-02-17T11:55:29.797Z,1014.66
2017-02-17T11:56:29.738Z,1014.69
2017-02-17T11:57:29.678Z,1014.63
2017-02-17T11:58:29.611Z,1014.68
2017-02-17T11:59:29.552Z,1014.65
2017-02-17T12:00:29.490Z,1014.66
2017-02-17T12:01:29.432Z,1014.68
2017-02-17T12:02:29.373Z,1014.64
2017-02-17T12:03:29.303Z,1014.66
2017-02-17T12:04:29.243Z,1014.63
2017-02-17T12:05:29.182Z,1014.61
2017-02-17T12:06:29.121Z,1014.62
2017-02-17T12:07:29.069Z,1014.67
2017-02-17T12:08:29.002Z,1014.64